sensor_id;sensor_type;location;lat;lon;timestamp;pressure;altitude;pressure_sealevel;temperature;humidity
54808;BME280;40708;50.364;7.550;2023-04-28T00:00:49;100224.59;;;13.26;100.00
54808;BME280;40708;50.364;7.550;2023-04-28T00:03:14;100229.94;;;13.25;100.00
54808;BME280;40708;50.364;7.550;2023-04-28T00:05:40;100228.16;;;13.25;100.00
54808;BME280;40708;50.364;7.550;2023-04-28T00:08:05;100230.88;;;13.21;100.00
54808;BME280;40708;50.364;7.550;2023-04-28T00:10:31;100224.59;;;13.25;100.00
54808;BME280;40708;50.364;7.550;2023-04-28T00:12:56;100227.22;;;13.28;100.00
54808;BME280;40708;50.364;7.550;2023-04-28T00:15:22;100229.00;;;13.27;100.00
54808;BME280;40708;50.364;7.550;2023-04-28T00:17:47;100228.06;;;13.30;100.00
54808;BME280;40708;50.364;7.550;2023-04-28T00:20:12;100235.25;;;13.26;100.00
54808;BME280;40708;50.364;7.550;2023-04-28T00:22:38;100234.41;;;13.23;100.00
54808;BME280;40708;50.364;7.550;2023-04-28T00:25:04;100233.69;;;13.05;100.00
54808;BME280;40708;50.364;7.550;2023-04-28T00:27:31;100225.75;;;13.04;100.00
54808;BME280;40708;50.364;7.550;2023-04-28T00:29:57;100214.34;;;12.91;100.00
54808;BME280;40708;50.364;7.550;2023-04-28T00:32:22;100221.47;;;12.91;100.00
54808;BME280;40708;50.364;7.550;2023-04-28T00:34:47;100219.88;;;12.75;100.00
54808;BME280;40708;50.364;7.550;2023-04-28T00:37:12;100221.75;;;12.68;100.00
54808;BME280;40708;50.364;7.550;2023-04-28T00:39:38;100223.59;;;12.63;100.00
54808;BME280;40708;50.364;7.550;2023-04-28T00:42:03;100221.88;;;12.56;100.00
54808;BME280;40708;50.364;7.550;2023-04-28T00:44:28;100225.47;;;12.53;100.00
54808;BME280;40708;50.364;7.550;2023-04-28T00:46:55;100212.22;;;12.49;100.00
54808;BME280;40708;50.364;7.550;2023-04-28T00:49:20;100217.69;;;12.35;100.00
54808;BME280;40708;50.364;7.550;2023-04-28T00:51:45;100221.38;;;12.22;100.00
54808;BME280;40708;50.364;7.550;2023-04-28T00:54:13;100230.25;;;12.18;100.00
54808;BME280;40708;50.364;7.550;2023-04-28T00:56:39;100232.03;;;12.19;100.00
54808;BME280;40708;50.364;7.550;2023-04-28T00:59:05;100218.69;;;12.21;100.00
54808;BME280;40708;50.364;7.550;2023-04-28T01:01:30;100206.31;;;12.18;100.00
54808;BME280;40708;50.364;7.550;2023-04-28T01:03:56;100199.25;;;12.16;100.00
54808;BME280;40708;50.364;7.550;2023-04-28T01:06:22;100197.50;;;12.15;100.00
54808;BME280;40708;50.364;7.550;2023-04-28T01:08:48;100208.19;;;12.12;100.00
54808;BME280;40708;50.364;7.550;2023-04-28T01:11:14;100212.69;;;12.02;100.00
54808;BME280;40708;50.364;7.550;2023-04-28T01:13:40;100215.41;;;11.98;100.00
54808;BME280;40708;50.364;7.550;2023-04-28T01:16:08;100210.16;;;11.90;100.00
54808;BME280;40708;50.364;7.550;2023-04-28T01:18:33;100220.78;;;11.88;100.00
54808;BME280;40708;50.364;7.550;2023-04-28T01:20:59;100224.34;;;11.87;100.00
54808;BME280;40708;50.364;7.550;2023-04-28T01:23:24;100216.41;;;11.84;100.00
54808;BME280;40708;50.364;7.550;2023-04-28T01:25:49;100225.22;;;11.85;100.00
54808;BME280;40708;50.364;7.550;2023-04-28T01:28:14;100217.28;;;11.83;100.00
54808;BME280;40708;50.364;7.550;2023-04-28T01:30:40;100212.84;;;11.84;100.00
54808;BME280;40708;50.364;7.550;2023-04-28T01:33:05;100231.47;;;11.84;100.00
54808;BME280;40708;50.364;7.550;2023-04-28T01:35:30;100225.22;;;11.85;100.00
54808;BME280;40708;50.364;7.550;2023-04-28T01:37:56;100228.78;;;11.82;100.00
54808;BME280;40708;50.364;7.550;2023-04-28T01:40:21;100235.00;;;11.83;100.00
54808;BME280;40708;50.364;7.550;2023-04-28T01:42:46;100230.59;;;11.82;100.00
54808;BME280;40708;50.364;7.550;2023-04-28T01:45:12;100220.81;;;11.85;100.00
54808;BME280;40708;50.364;7.550;2023-04-28T01:47:37;100204.88;;;11.82;100.00
54808;BME280;40708;50.364;7.550;2023-04-28T01:50:03;100204.88;;;11.82;100.00
54808;BME280;40708;50.364;7.550;2023-04-28T01:52:28;100222.66;;;11.74;100.00
54808;BME280;40708;50.364;7.550;2023-04-28T01:54:53;100227.13;;;11.68;100.00
54808;BME280;40708;50.364;7.550;2023-04-28T01:57:19;100243.13;;;11.59;100.00
54808;BME280;40708;50.364;7.550;2023-04-28T01:59:45;100251.97;;;11.61;100.00
54808;BME280;40708;50.364;7.550;2023-04-28T02:02:10;100254.66;;;11.53;100.00
54808;BME280;40708;50.364;7.550;2023-04-28T02:04:39;100256.47;;;11.48;100.00
54808;BME280;40708;50.364;7.550;2023-04-28T02:07:05;100253.81;;;11.48;100.00
54808;BME280;40708;50.364;7.550;2023-04-28T02:09:31;100245.84;;;11.51;100.00
54808;BME280;40708;50.364;7.550;2023-04-28T02:11:57;100231.69;;;11.49;100.00
54808;BME280;40708;50.364;7.550;2023-04-28T02:14:24;100231.72;;;11.42;100.00
54808;BME280;40708;50.364;7.550;2023-04-28T02:16:49;100223.75;;;11.42;100.00
54808;BME280;40708;50.364;7.550;2023-04-28T02:19:14;100211.34;;;11.45;100.00
54808;BME280;40708;50.364;7.550;2023-04-28T02:21:41;100205.13;;;11.49;100.00
54808;BME280;40708;50.364;7.550;2023-04-28T02:24:07;100189.97;;;11.59;100.00
54808;BME280;40708;50.364;7.550;2023-04-28T02:26:32;100187.28;;;11.65;100.00
54808;BME280;40708;50.364;7.550;2023-04-28T02:28:58;100191.69;;;11.67;100.00
54808;BME280;40708;50.364;7.550;2023-04-28T02:31:23;100181.94;;;11.72;100.00
54808;BME280;40708;50.364;7.550;2023-04-28T02:33:48;100179.28;;;11.72;100.00
54808;BME280;40708;50.364;7.550;2023-04-28T02:36:13;100185.47;;;11.73;100.00
54808;BME280;40708;50.364;7.550;2023-04-28T02:38:39;100172.16;;;11.76;100.00
54808;BME280;40708;50.364;7.550;2023-04-28T02:41:06;100158.81;;;11.80;100.00
54808;BME280;40708;50.364;7.550;2023-04-28T02:43:33;100157.91;;;11.84;100.00
54808;BME280;40708;50.364;7.550;2023-04-28T02:45:59;100159.63;;;11.88;100.00
54808;BME280;40708;50.364;7.550;2023-04-28T02:48:25;100152.56;;;11.89;100.00
54808;BME280;40708;50.364;7.550;2023-04-28T02:50:51;100143.72;;;11.85;100.00
54808;BME280;40708;50.364;7.550;2023-04-28T02:53:18;100158.72;;;11.91;100.00
54808;BME280;40708;50.364;7.550;2023-04-28T02:55:43;100169.41;;;11.86;100.00
54808;BME280;40708;50.364;7.550;2023-04-28T02:58:08;100188.09;;;11.77;100.00
54808;BME280;40708;50.364;7.550;2023-04-28T03:00:34;100189.84;;;11.81;100.00
54808;BME280;40708;50.364;7.550;2023-04-28T03:02:59;100205.03;;;11.63;100.00
54808;BME280;40708;50.364;7.550;2023-04-28T03:05:26;100209.44;;;11.65;100.00
54808;BME280;40708;50.364;7.550;2023-04-28T03:07:51;100215.63;;;11.64;100.00
54808;BME280;40708;50.364;7.550;2023-04-28T03:10:16;100214.75;;;11.61;100.00
54808;BME280;40708;50.364;7.550;2023-04-28T03:12:42;100237.84;;;11.53;100.00
54808;BME280;40708;50.364;7.550;2023-04-28T03:15:07;100233.47;;;11.44;100.00
54808;BME280;40708;50.364;7.550;2023-04-28T03:17:33;100255.69;;;11.32;100.00
54808;BME280;40708;50.364;7.550;2023-04-28T03:20:00;100262.84;;;11.21;100.00
54808;BME280;40708;50.364;7.550;2023-04-28T03:22:26;100292.06;;;11.17;100.00
54808;BME280;40708;50.364;7.550;2023-04-28T03:24:51;100286.75;;;11.12;100.00
54808;BME280;40708;50.364;7.550;2023-04-28T03:27:16;100304.50;;;11.06;100.00
54808;BME280;40708;50.364;7.550;2023-04-28T03:29:42;100310.72;;;10.97;100.00
54808;BME280;40708;50.364;7.550;2023-04-28T03:32:07;100310.72;;;11.00;100.00
54808;BME280;40708;50.364;7.550;2023-04-28T03:34:32;100324.00;;;10.96;100.00
54808;BME280;40708;50.364;7.550;2023-04-28T03:36:57;100333.72;;;10.95;100.00
54808;BME280;40708;50.364;7.550;2023-04-28T03:39:23;100347.03;;;10.92;100.00
54808;BME280;40708;50.364;7.550;2023-04-28T03:41:48;100348.78;;;10.95;100.00
54808;BME280;40708;50.364;7.550;2023-04-28T03:44:13;100339.94;;;10.97;100.00
54808;BME280;40708;50.364;7.550;2023-04-28T03:46:38;100323.97;;;10.99;100.00
54808;BME280;40708;50.364;7.550;2023-04-28T03:49:04;100306.31;;;10.98;100.00
54808;BME280;40708;50.364;7.550;2023-04-28T03:51:30;100293.03;;;10.99;100.00
54808;BME280;40708;50.364;7.550;2023-04-28T03:53:57;100285.94;;;11.03;100.00
54808;BME280;40708;50.364;7.550;2023-04-28T03:56:23;100283.25;;;11.04;100.00
54808;BME280;40708;50.364;7.550;2023-04-28T03:58:48;100279.72;;;11.04;100.00
54808;BME280;40708;50.364;7.550;2023-04-28T04:01:13;100285.06;;;11.02;100.00
54808;BME280;40708;50.364;7.550;2023-04-28T04:03:38;100280.63;;;11.06;100.00
54808;BME280;40708;50.364;7.550;2023-04-28T04:06:05;100286.81;;;11.03;100.00
54808;BME280;40708;50.364;7.550;2023-04-28T04:08:31;100303.63;;;11.01;100.00
54808;BME280;40708;50.364;7.550;2023-04-28T04:10:57;100328.41;;;11.03;100.00
54808;BME280;40708;50.364;7.550;2023-04-28T04:13:22;100318.66;;;11.05;100.00
54808;BME280;40708;50.364;7.550;2023-04-28T04:15:47;100308.03;;;11.05;100.00
54808;BME280;40708;50.364;7.550;2023-04-28T04:18:14;100300.06;;;11.05;100.00
54808;BME280;40708;50.364;7.550;2023-04-28T04:20:39;100277.97;;;11.06;100.00
54808;BME280;40708;50.364;7.550;2023-04-28T04:23:05;100269.09;;;11.11;100.00
54808;BME280;40708;50.364;7.550;2023-04-28T04:25:30;100273.50;;;11.11;100.00
54808;BME280;40708;50.364;7.550;2023-04-28T04:27:56;100292.09;;;11.11;100.00
54808;BME280;40708;50.364;7.550;2023-04-28T04:30:22;100302.69;;;11.12;100.00
54808;BME280;40708;50.364;7.550;2023-04-28T04:32:47;100330.16;;;11.08;100.00
54808;BME280;40708;50.364;7.550;2023-04-28T04:35:12;100321.28;;;11.06;100.00
54808;BME280;40708;50.364;7.550;2023-04-28T04:37:37;100303.63;;;11.08;100.00
54808;BME280;40708;50.364;7.550;2023-04-28T04:40:03;100306.25;;;11.13;100.00
54808;BME280;40708;50.364;7.550;2023-04-28T04:42:29;100290.31;;;11.13;100.00
54808;BME280;40708;50.364;7.550;2023-04-28T04:44:54;100287.63;;;11.19;100.00
54808;BME280;40708;50.364;7.550;2023-04-28T04:47:19;100285.00;;;11.16;100.00
54808;BME280;40708;50.364;7.550;2023-04-28T04:49:45;100289.41;;;11.15;100.00
54808;BME280;40708;50.364;7.550;2023-04-28T04:52:10;100297.34;;;11.20;100.00
54808;BME280;40708;50.364;7.550;2023-04-28T04:54:35;100277.00;;;11.25;100.00
54808;BME280;40708;50.364;7.550;2023-04-28T04:57:01;100264.59;;;11.24;100.00
54808;BME280;40708;50.364;7.550;2023-04-28T04:59:26;100273.47;;;11.18;100.00
54808;BME280;40708;50.364;7.550;2023-04-28T05:01:52;100284.97;;;11.20;100.00
54808;BME280;40708;50.364;7.550;2023-04-28T05:04:17;100273.47;;;11.21;100.00
54808;BME280;40708;50.364;7.550;2023-04-28T05:06:42;100275.19;;;11.25;100.00
54808;BME280;40708;50.364;7.550;2023-04-28T05:09:08;100286.72;;;11.24;100.00
54808;BME280;40708;50.364;7.550;2023-04-28T05:11:33;100294.69;;;11.21;100.00
54808;BME280;40708;50.364;7.550;2023-04-28T05:13:58;100290.28;;;11.14;100.00
54808;BME280;40708;50.364;7.550;2023-04-28T05:16:24;100292.94;;;11.17;100.00
54808;BME280;40708;50.364;7.550;2023-04-28T05:18:49;100311.53;;;11.17;100.00
54808;BME280;40708;50.364;7.550;2023-04-28T05:21:15;100310.66;;;11.15;100.00
54808;BME280;40708;50.364;7.550;2023-04-28T05:23:41;100326.59;;;11.14;100.00
54808;BME280;40708;50.364;7.550;2023-04-28T05:26:06;100324.84;;;11.10;100.00
54808;BME280;40708;50.364;7.550;2023-04-28T05:28:31;100336.38;;;11.01;100.00
54808;BME280;40708;50.364;7.550;2023-04-28T05:30:57;100356.72;;;10.99;100.00
54808;BME280;40708;50.364;7.550;2023-04-28T05:33:22;100392.16;;;10.89;100.00
54808;BME280;40708;50.364;7.550;2023-04-28T05:35:48;100413.38;;;10.89;100.00
54808;BME280;40708;50.364;7.550;2023-04-28T05:38:13;100426.63;;;10.88;100.00
54808;BME280;40708;50.364;7.550;2023-04-28T05:40:39;100437.25;;;10.85;100.00
54808;BME280;40708;50.364;7.550;2023-04-28T05:43:04;100457.63;;;10.75;100.00
54808;BME280;40708;50.364;7.550;2023-04-28T05:45:29;100485.94;;;10.81;100.00
54808;BME280;40708;50.364;7.550;2023-04-28T05:47:55;100480.59;;;10.82;100.00
54808;BME280;40708;50.364;7.550;2023-04-28T05:50:20;100486.81;;;10.78;100.00
54808;BME280;40708;50.364;7.550;2023-04-28T05:52:46;100512.44;;;10.79;100.00
54808;BME280;40708;50.364;7.550;2023-04-28T05:55:11;100509.78;;;10.79;100.00
54808;BME280;40708;50.364;7.550;2023-04-28T05:57:36;100528.38;;;10.79;100.00
54808;BME280;40708;50.364;7.550;2023-04-28T06:00:02;100536.34;;;10.81;100.00
54808;BME280;40708;50.364;7.550;2023-04-28T06:02:28;100539.88;;;10.80;100.00
54808;BME280;40708;50.364;7.550;2023-04-28T06:04:53;100554.91;;;10.70;100.00
54808;BME280;40708;50.364;7.550;2023-04-28T06:07:18;100551.38;;;10.80;100.00
54808;BME280;40708;50.364;7.550;2023-04-28T06:09:43;100551.38;;;10.83;100.00
54808;BME280;40708;50.364;7.550;2023-04-28T06:12:09;100558.47;;;10.92;100.00
54808;BME280;40708;50.364;7.550;2023-04-28T06:14:34;100565.53;;;10.96;100.00
54808;BME280;40708;50.364;7.550;2023-04-28T06:17:02;100574.41;;;11.04;100.00
54808;BME280;40708;50.364;7.550;2023-04-28T06:19:27;100578.84;;;11.05;100.00
54808;BME280;40708;50.364;7.550;2023-04-28T06:21:52;100579.72;;;11.10;100.00
54808;BME280;40708;50.364;7.550;2023-04-28T06:24:17;100558.47;;;11.04;100.00
54808;BME280;40708;50.364;7.550;2023-04-28T06:26:43;100554.94;;;11.08;100.00
54808;BME280;40708;50.364;7.550;2023-04-28T06:29:08;100534.59;;;11.13;100.00
54808;BME280;40708;50.364;7.550;2023-04-28T06:31:33;100543.44;;;11.19;100.00
54808;BME280;40708;50.364;7.550;2023-04-28T06:33:59;100546.06;;;11.25;100.00
54808;BME280;40708;50.364;7.550;2023-04-28T06:36:24;100555.81;;;11.31;100.00
54808;BME280;40708;50.364;7.550;2023-04-28T06:38:49;100541.66;;;11.30;100.00
54808;BME280;40708;50.364;7.550;2023-04-28T06:41:15;100548.72;;;11.44;100.00
54808;BME280;40708;50.364;7.550;2023-04-28T06:43:40;100544.28;;;11.55;100.00
54808;BME280;40708;50.364;7.550;2023-04-28T06:46:06;100539.84;;;11.51;100.00
54808;BME280;40708;50.364;7.550;2023-04-28T06:48:31;100543.38;;;11.69;100.00
54808;BME280;40708;50.364;7.550;2023-04-28T06:50:56;100546.00;;;11.77;100.00
54808;BME280;40708;50.364;7.550;2023-04-28T06:53:22;100534.41;;;11.99;100.00
54808;BME280;40708;50.364;7.550;2023-04-28T06:55:47;100513.16;;;11.98;100.00
54808;BME280;40708;50.364;7.550;2023-04-28T06:58:12;100499.81;;;12.14;100.00
54808;BME280;40708;50.364;7.550;2023-04-28T07:00:37;100487.34;;;12.21;100.00
54808;BME280;40708;50.364;7.550;2023-04-28T07:03:03;100458.03;;;12.30;100.00
54808;BME280;40708;50.364;7.550;2023-04-28T07:05:28;100437.69;;;12.23;100.00
54808;BME280;40708;50.364;7.550;2023-04-28T07:07:54;100421.59;;;12.39;100.00
54808;BME280;40708;50.364;7.550;2023-04-28T07:10:19;100414.53;;;12.37;100.00
54808;BME280;40708;50.364;7.550;2023-04-28T07:12:45;100420.56;;;12.59;100.00
54808;BME280;40708;50.364;7.550;2023-04-28T07:15:10;100409.06;;;12.53;100.00
54808;BME280;40708;50.364;7.550;2023-04-28T07:17:36;100407.13;;;12.74;100.00
54808;BME280;40708;50.364;7.550;2023-04-28T07:20:02;100397.16;;;12.95;100.00
54808;BME280;40708;50.364;7.550;2023-04-28T07:22:28;100357.22;;;12.94;100.00
54808;BME280;40708;50.364;7.550;2023-04-28T07:24:53;100356.25;;;13.02;100.00
54808;BME280;40708;50.364;7.550;2023-04-28T07:27:19;100356.97;;;13.18;100.00
54808;BME280;40708;50.364;7.550;2023-04-28T07:29:44;100348.03;;;13.24;100.00
54808;BME280;40708;50.364;7.550;2023-04-28T07:32:09;100345.28;;;13.34;100.00
54808;BME280;40708;50.364;7.550;2023-04-28T07:34:35;100334.56;;;13.36;100.00
54808;BME280;40708;50.364;7.550;2023-04-28T07:37:02;100332.78;;;13.39;100.00
54808;BME280;40708;50.364;7.550;2023-04-28T07:39:30;100326.44;;;13.48;100.00
54808;BME280;40708;50.364;7.550;2023-04-28T07:41:55;100322.78;;;13.55;100.00
54808;BME280;40708;50.364;7.550;2023-04-28T07:44:22;100320.19;;;13.49;100.00
54808;BME280;40708;50.364;7.550;2023-04-28T07:46:47;100294.06;;;13.73;100.00
54808;BME280;40708;50.364;7.550;2023-04-28T07:49:12;100276.63;;;14.09;100.00
54808;BME280;40708;50.364;7.550;2023-04-28T07:51:38;100251.44;;;14.25;100.00
54808;BME280;40708;50.364;7.550;2023-04-28T07:54:03;100238.56;;;14.50;100.00
54808;BME280;40708;50.364;7.550;2023-04-28T07:56:28;100233.44;;;14.84;100.00
54808;BME280;40708;50.364;7.550;2023-04-28T07:58:54;100217.78;;;14.67;100.00
54808;BME280;40708;50.364;7.550;2023-04-28T08:01:19;100212.00;;;14.88;100.00
54808;BME280;40708;50.364;7.550;2023-04-28T08:03:45;100198.00;;;14.76;100.00
54808;BME280;40708;50.364;7.550;2023-04-28T08:06:11;100211.47;;;15.13;100.00
54808;BME280;40708;50.364;7.550;2023-04-28T08:08:36;100173.50;;;15.37;100.00
54808;BME280;40708;50.364;7.550;2023-04-28T08:11:02;100173.41;;;15.02;100.00
54808;BME280;40708;50.364;7.550;2023-04-28T08:13:27;100188.84;;;14.87;100.00
54808;BME280;40708;50.364;7.550;2023-04-28T08:15:53;100203.47;;;15.13;100.00
54808;BME280;40708;50.364;7.550;2023-04-28T08:18:20;100201.66;;;15.13;100.00
54808;BME280;40708;50.364;7.550;2023-04-28T08:20:46;100200.38;;;14.89;100.00
54808;BME280;40708;50.364;7.550;2023-04-28T08:23:11;100211.41;;;15.16;100.00
54808;BME280;40708;50.364;7.550;2023-04-28T08:25:36;100211.16;;;14.86;100.00
54808;BME280;40708;50.364;7.550;2023-04-28T08:28:02;100223.09;;;15.10;100.00
54808;BME280;40708;50.364;7.550;2023-04-28T08:30:28;100211.28;;;15.20;100.00
54808;BME280;40708;50.364;7.550;2023-04-28T08:32:53;100207.78;;;15.18;100.00
54808;BME280;40708;50.364;7.550;2023-04-28T08:35:18;100201.91;;;15.41;100.00
54808;BME280;40708;50.364;7.550;2023-04-28T08:37:44;100180.63;;;15.38;100.00
54808;BME280;40708;50.364;7.550;2023-04-28T08:40:09;100188.72;;;15.72;100.00
54808;BME280;40708;50.364;7.550;2023-04-28T08:42:35;100182.38;;;16.11;100.00
54808;BME280;40708;50.364;7.550;2023-04-28T08:45:03;100160.31;;;16.67;100.00
54808;BME280;40708;50.364;7.550;2023-04-28T08:47:36;100137.50;;;17.41;100.00
54808;BME280;40708;50.364;7.550;2023-04-28T08:50:10;100098.03;;;17.72;100.00
54808;BME280;40708;50.364;7.550;2023-04-28T08:52:37;100083.03;;;17.91;100.00
54808;BME280;40708;50.364;7.550;2023-04-28T08:55:06;100068.97;;;18.59;100.00
54808;BME280;40708;50.364;7.550;2023-04-28T08:57:36;100057.16;;;18.63;100.00
54808;BME280;40708;50.364;7.550;2023-04-28T09:00:03;100073.69;;;18.03;100.00
54808;BME280;40708;50.364;7.550;2023-04-28T09:02:28;100067.19;;;18.10;100.00
54808;BME280;40708;50.364;7.550;2023-04-28T09:04:53;100070.63;;;17.89;100.00
54808;BME280;40708;50.364;7.550;2023-04-28T09:07:19;100083.53;;;18.27;100.00
54808;BME280;40708;50.364;7.550;2023-04-28T09:09:44;100065.44;;;18.57;100.00
54808;BME280;40708;50.364;7.550;2023-04-28T09:12:10;100041.75;;;19.33;100.00
54808;BME280;40708;50.364;7.550;2023-04-28T09:14:36;100026.00;;;19.67;100.00
54808;BME280;40708;50.364;7.550;2023-04-28T09:17:08;100026.06;;;19.86;100.00
54808;BME280;40708;50.364;7.550;2023-04-28T09:19:35;100014.50;;;19.84;100.00
54808;BME280;40708;50.364;7.550;2023-04-28T09:22:01;100018.31;;;19.58;100.00
54808;BME280;40708;50.364;7.550;2023-04-28T09:27:02;100036.72;;;18.59;100.00
54808;BME280;40708;50.364;7.550;2023-04-28T09:29:29;100042.16;;;19.02;100.00
54808;BME280;40708;50.364;7.550;2023-04-28T09:32:15;100050.66;;;18.45;100.00
54808;BME280;40708;50.364;7.550;2023-04-28T09:34:51;100054.34;;;18.42;100.00
54808;BME280;40708;50.364;7.550;2023-04-28T09:37:22;100044.31;;;18.71;100.00
54808;BME280;40708;50.364;7.550;2023-04-28T09:39:50;100039.16;;;19.10;100.00
54808;BME280;40708;50.364;7.550;2023-04-28T09:42:36;100035.34;;;18.93;100.00
54808;BME280;40708;50.364;7.550;2023-04-28T09:47:29;100029.44;;;19.27;100.00
54808;BME280;40708;50.364;7.550;2023-04-28T09:49:58;100031.97;;;19.32;100.00
54808;BME280;40708;50.364;7.550;2023-04-28T09:52:25;100027.59;;;19.29;100.00
54808;BME280;40708;50.364;7.550;2023-04-28T09:54:51;100014.56;;;20.02;100.00
54808;BME280;40708;50.364;7.550;2023-04-28T09:57:18;100006.81;;;19.75;100.00
54808;BME280;40708;50.364;7.550;2023-04-28T09:59:48;99998.00;;;20.30;100.00
54808;BME280;40708;50.364;7.550;2023-04-28T10:02:18;99985.59;;;20.46;100.00
54808;BME280;40708;50.364;7.550;2023-04-28T10:04:45;99982.22;;;20.97;100.00
54808;BME280;40708;50.364;7.550;2023-04-28T10:07:12;99987.03;;;21.09;100.00
54808;BME280;40708;50.364;7.550;2023-04-28T10:09:39;99973.38;;;21.12;100.00
54808;BME280;40708;50.364;7.550;2023-04-28T10:12:08;99972.81;;;20.68;100.00
54808;BME280;40708;50.364;7.550;2023-04-28T10:14:36;99974.59;;;20.69;100.00
54808;BME280;40708;50.364;7.550;2023-04-28T10:17:02;99970.81;;;20.73;100.00
54808;BME280;40708;50.364;7.550;2023-04-28T10:19:27;99972.41;;;20.40;100.00
54808;BME280;40708;50.364;7.550;2023-04-28T10:22:04;99980.69;;;20.92;100.00
54808;BME280;40708;50.364;7.550;2023-04-28T10:24:47;99975.63;;;20.48;100.00
54808;BME280;40708;50.364;7.550;2023-04-28T10:27:18;99971.31;;;20.82;100.00
54808;BME280;40708;50.364;7.550;2023-04-28T10:29:43;99959.38;;;20.31;100.00
54808;BME280;40708;50.364;7.550;2023-04-28T10:32:17;99955.06;;;20.64;100.00
54808;BME280;40708;50.364;7.550;2023-04-28T10:34:42;99948.03;;;20.79;100.00
54808;BME280;40708;50.364;7.550;2023-04-28T10:37:08;99951.03;;;20.92;100.00
54808;BME280;40708;50.364;7.550;2023-04-28T10:39:33;99952.16;;;21.05;100.00
54808;BME280;40708;50.364;7.550;2023-04-28T10:41:59;99951.84;;;20.75;100.00
54808;BME280;40708;50.364;7.550;2023-04-28T10:47:03;99935.72;;;21.62;100.00
54808;BME280;40708;50.364;7.550;2023-04-28T11:00:40;99889.59;;;22.64;100.00
54808;BME280;40708;50.364;7.550;2023-04-28T11:03:06;99885.91;;;22.96;100.00
54808;BME280;40708;50.364;7.550;2023-04-28T11:05:31;99882.44;;;23.08;100.00
54808;BME280;40708;50.364;7.550;2023-04-28T11:11:11;99887.56;;;22.36;100.00
54808;BME280;40708;50.364;7.550;2023-04-28T11:13:37;99889.38;;;22.20;100.00
54808;BME280;40708;50.364;7.550;2023-04-28T11:16:03;99879.25;;;22.86;100.00
54808;BME280;40708;50.364;7.550;2023-04-28T11:21:15;99867.13;;;23.23;100.00
54808;BME280;40708;50.364;7.550;2023-04-28T11:23:41;99864.41;;;23.38;100.00
54808;BME280;40708;50.364;7.550;2023-04-28T11:26:07;99862.13;;;23.60;100.00
54808;BME280;40708;50.364;7.550;2023-04-28T11:28:32;99857.94;;;23.55;100.00
54808;BME280;40708;50.364;7.550;2023-04-28T11:31:15;99857.47;;;23.62;100.00
54808;BME280;40708;50.364;7.550;2023-04-28T11:33:51;99845.78;;;23.90;100.00
54808;BME280;40708;50.364;7.550;2023-04-28T11:38:48;99835.13;;;24.01;100.00
54808;BME280;40708;50.364;7.550;2023-04-28T11:41:14;99832.59;;;23.98;100.00
54808;BME280;40708;50.364;7.550;2023-04-28T11:43:39;99831.72;;;23.84;100.00
54808;BME280;40708;50.364;7.550;2023-04-28T11:46:06;99834.16;;;24.16;100.00
54808;BME280;40708;50.364;7.550;2023-04-28T11:48:31;99833.47;;;23.56;100.00
54808;BME280;40708;50.364;7.550;2023-04-28T11:50:57;99835.31;;;23.84;100.00
54808;BME280;40708;50.364;7.550;2023-04-28T11:53:42;99833.47;;;23.99;100.00
54808;BME280;40708;50.364;7.550;2023-04-28T11:56:08;99839.41;;;23.33;100.00
54808;BME280;40708;50.364;7.550;2023-04-28T11:58:34;99843.91;;;23.19;100.00
54808;BME280;40708;50.364;7.550;2023-04-28T12:01:12;99838.72;;;23.30;100.00
54808;BME280;40708;50.364;7.550;2023-04-28T12:03:46;99826.53;;;23.81;100.00
54808;BME280;40708;50.364;7.550;2023-04-28T12:06:16;99830.88;;;23.55;100.00
54808;BME280;40708;50.364;7.550;2023-04-28T12:08:42;99821.38;;;23.62;100.00
54808;BME280;40708;50.364;7.550;2023-04-28T12:11:08;99819.09;;;23.56;100.00
54808;BME280;40708;50.364;7.550;2023-04-28T12:13:42;99810.78;;;23.29;100.00
54808;BME280;40708;50.364;7.550;2023-04-28T12:16:07;99820.53;;;23.61;100.00
54808;BME280;40708;50.364;7.550;2023-04-28T12:18:36;99811.84;;;23.27;100.00
54808;BME280;40708;50.364;7.550;2023-04-28T12:21:03;99814.91;;;23.64;100.00
54808;BME280;40708;50.364;7.550;2023-04-28T12:25:55;99801.94;;;24.12;100.00
54808;BME280;40708;50.364;7.550;2023-04-28T12:28:21;99801.84;;;23.99;100.00
54808;BME280;40708;50.364;7.550;2023-04-28T12:30:47;99798.84;;;24.45;100.00
54808;BME280;40708;50.364;7.550;2023-04-28T12:33:26;99799.88;;;24.83;100.00
54808;BME280;40708;50.364;7.550;2023-04-28T12:35:52;99802.22;;;25.14;100.00
54808;BME280;40708;50.364;7.550;2023-04-28T12:38:22;99799.22;;;25.69;100.00
54808;BME280;40708;50.364;7.550;2023-04-28T12:40:47;99795.34;;;25.48;100.00
54808;BME280;40708;50.364;7.550;2023-04-28T12:43:12;99792.63;;;25.48;100.00
54808;BME280;40708;50.364;7.550;2023-04-28T12:45:37;99790.06;;;25.07;100.00
54808;BME280;40708;50.364;7.550;2023-04-28T12:48:03;99781.16;;;25.18;100.00
54808;BME280;40708;50.364;7.550;2023-04-28T12:50:28;99789.59;;;24.88;100.00
54808;BME280;40708;50.364;7.550;2023-04-28T12:52:57;99791.44;;;24.34;100.00
54808;BME280;40708;50.364;7.550;2023-04-28T12:55:22;99792.66;;;24.43;100.00
54808;BME280;40708;50.364;7.550;2023-04-28T12:57:48;99791.94;;;24.53;100.00
54808;BME280;40708;50.364;7.550;2023-04-28T13:00:13;99799.56;;;24.34;100.00
54808;BME280;40708;50.364;7.550;2023-04-28T13:02:40;99803.94;;;24.08;100.00
54808;BME280;40708;50.364;7.550;2023-04-28T13:05:06;99804.56;;;23.99;100.00
54808;BME280;40708;50.364;7.550;2023-04-28T13:07:32;99806.97;;;24.04;100.00